Portada
METAR-TAF:

METAR-TAF

Aeropuertos :

Tarbes Lourdes, Francia

Aeropuerto de Tarbes-Lourdes-Pirineos

latitud: 43-11N, longitud: 000-00W, altitud: 379 m

Observación

El informe se hizo hace 23 minutos, a las 02:30 UTC
Viento 3 kt del sur
Temperatura 2°C
Humedad 100%
Presión 1027 hPa
Visibilidad 10 km o más
Nubes dispersas a una altura de 800 ft

METAR: LFBT 180230Z AUTO 17003KT 9999 SCT008 02/02 Q1027 NOSIG

Hora: 03:53 (02:53 UTC)

Pronóstico

El informe se hizo hace 3 horas y 53 minutos, a las 23:00 UTC
Pronóstico válido del 18 a las 00 UTC al 18 a las 24 UTC
Viento 2 kt con dirección variable
Visibilidad 10 km o más
Nubes dispersas a una altura de 3000 ft
Cielo cubierto a una altura de 4500 ft
Evolucionando progresivamente
del 18 a las 16 UTC al 18 a las 18 UTC
Cielo nuboso a una altura de 3000 ft

TAF: LFBT 172300Z 1800/1824 VRB02KT 9999 SCT030 OVC045 BECMG 1816/1818 BKN030

Observaciones y pronósticos meteorológicos de más de 4000 aeropuertos (mensajes METAR y TAF).

Los puntos amarillos y rojos representan las estaciones disponibles.

Ponga el ratón en el punto deseado para ver el nombre de la estación.

Haga clic para ver las observaciones y los pronósticos meteorológicos.

Para cambiar el mapa : haga clic en los botones verdes con una cruz de color negro para hacer un zoom, en el botón verde con un guión para alejar o en las flechas verdes para mapas adyacentes.


METAR-TAF: